Погода Итагуаина 2 недели

Рио-де-Жанейро, Бразилия

24 июля-06 августа
  • 24июля
    Сегодня
    +15°
    +26°
    Ясно и безоблачно
    ВремяПогодаТемператураВлажностьДавлениеВетер, м/сВероятность осадков
    00:00Небольшая облачность+16°C96 %767 мм1.5 м/с5 %
    03:00Небольшая облачность+16°C92 %767 мм1.9 м/с5 %
    06:00Ясно и безоблачно+16°C95 %767 мм1.9 м/с5 %
    09:00Ясно и безоблачно+21°C74 %767 мм2.6 м/с5 %
    12:00Ясно и безоблачно+25°C43 %766 мм4.1 м/с5 %
    15:00Ясно и безоблачно+25°C41 %765 мм4.8 м/с5 %
    18:00Ясно и безоблачно+21°C81 %765 мм2.8 м/с5 %
    21:00Ясно и безоблачно+19°C85 %766 мм1.4 м/с5 %
  • 25июля
    Четверг
    +17°
    +27°
    Ясно и безоблачно
    ВремяПогодаТемператураВлажностьДавлениеВетер, м/сВероятность осадков
    00:00Ясно и безоблачно+17°C90 %766 мм1.9 м/с5 %
    03:00Небольшая облачность+16°C90 %765 мм2.1 м/с5 %
    06:00Практически безоблачно+16°C83 %764 мм2.1 м/с5 %
    09:00Ясно и безоблачно+22°C66 %765 мм3.1 м/с5 %
    12:00Ясно и безоблачно+26°C49 %764 мм4.5 м/с5 %
    15:00Ясно и безоблачно+27°C40 %761 мм4.3 м/с5 %
    18:00Ясно и безоблачно+21°C78 %762 мм2.3 м/с5 %
    21:00Ясно и безоблачно+20°C76 %763 мм1.5 м/с5 %
  • 26июля
    Пятница
    +17°
    +28°
    Небольшая облачность
    ВремяПогодаТемператураВлажностьДавлениеВетер, м/сВероятность осадков
    00:00Ясно и безоблачно+18°C81 %762 мм2.5 м/с5 %
    03:00Ясно и безоблачно+18°C77 %761 мм2.2 м/с5 %
    06:00Ясно и безоблачно+18°C83 %762 мм2.1 м/с5 %
    09:00Ясно и безоблачно+24°C58 %763 мм3.0 м/с5 %
    12:00Ясно и безоблачно+27°C41 %762 мм4.3 м/с5 %
    15:00Небольшая облачность+26°C45 %761 мм4.1 м/с5 %
    18:00Облачно с прояснениями+22°C72 %762 мм2.3 м/с5 %
    21:00Облачно с прояснениями+20°C83 %763 мм1.5 м/с5 %
  • 27июля
    Суббота
    +17°
    +27°
    Ясно и безоблачно
    ВремяПогодаТемператураВлажностьДавлениеВетер, м/сВероятность осадков
    00:00Облачно с прояснениями+19°C78 %763 мм1.7 м/с5 %
    03:00Облачно с прояснениями+18°C81 %762 мм1.9 м/с5 %
    06:00Облачно с прояснениями+18°C87 %762 мм2.2 м/с5 %
    09:00Облачно с прояснениями+24°C56 %763 мм2.6 м/с5 %
    12:00Облачно с прояснениями+27°C37 %763 мм3.7 м/с5 %
    15:00Ясно и безоблачно+25°C58 %762 мм4.6 м/с5 %
    18:00Ясно и безоблачно+21°C83 %763 мм2.3 м/с5 %
    21:00Ясно и безоблачно+20°C88 %764 мм1.2 м/с5 %
  • 28июля
    Воскресенье
    +19°
    +29°
    Ясно и безоблачно
    ВремяПогодаТемператураВлажностьДавлениеВетер, м/сВероятность осадков
    00:00Практически безоблачно+18°C90 %764 мм2.0 м/с5 %
    03:00Ясно и безоблачно+18°C86 %762 мм2.2 м/с5 %
    06:00Ясно и безоблачно+19°C71 %763 мм2.3 м/с4 %
    09:00Небольшая облачность+25°C54 %764 мм3.2 м/с5 %
    12:00Ясно и безоблачно+28°C43 %762 мм4.7 м/с5 %
    15:00Ясно и безоблачно+28°C37 %761 мм4.7 м/с5 %
    18:00Небольшая облачность+24°C53 %761 мм2.7 м/с9 %
    21:00Практически безоблачно+22°C63 %762 мм1.6 м/с12 %
Мы используем cookies
Соглашаюсь